createdAt,value
2023-11-09T00:01:26.175Z,71.71
2023-11-09T00:04:13.399Z,71.74
2023-11-09T00:07:00.118Z,71.72
2023-11-09T00:09:46.560Z,71.20
2023-11-09T00:12:34.174Z,71.23
2023-11-09T00:15:23.170Z,71.12
2023-11-09T00:18:09.610Z,71.38
2023-11-09T00:20:57.059Z,71.33
2023-11-09T00:23:43.934Z,71.22
2023-11-09T00:26:30.627Z,71.46
2023-11-09T00:29:18.129Z,71.05
2023-11-09T00:32:04.676Z,71.04
2023-11-09T00:34:51.690Z,71.24
2023-11-09T00:37:38.799Z,71.11
2023-11-09T00:40:25.872Z,71.07
2023-11-09T00:43:13.208Z,70.86
2023-11-09T00:46:01.673Z,71.10
2023-11-09T00:48:47.765Z,70.55
2023-11-09T00:51:34.743Z,70.65
2023-11-09T00:54:20.849Z,70.40
2023-11-09T00:57:07.095Z,70.35
2023-11-09T00:59:53.278Z,70.12
2023-11-09T01:02:40.103Z,70.35
2023-11-09T01:05:27.527Z,70.02
2023-11-09T01:11:24.943Z,69.78
2023-11-09T01:14:14.598Z,69.80
2023-11-09T01:17:01.734Z,69.18
2023-11-09T01:19:48.793Z,69.67
2023-11-09T01:22:41.169Z,69.19
2023-11-09T01:25:30.254Z,68.88
2023-11-09T01:28:17.115Z,68.14
2023-11-09T01:31:04.637Z,68.54
2023-11-09T01:33:51.222Z,67.80
2023-11-09T01:36:39.599Z,67.61
2023-11-09T01:39:25.652Z,67.02
2023-11-09T01:42:14.165Z,66.40
2023-11-09T01:45:00.146Z,66.47
2023-11-09T01:47:47.230Z,65.98
2023-11-09T01:50:33.810Z,66.26
2023-11-09T01:53:21.093Z,65.74
2023-11-09T01:56:08.016Z,65.16
2023-11-09T01:58:54.628Z,64.94
2023-11-09T02:01:42.296Z,65.39
2023-11-09T02:04:30.217Z,64.39
2023-11-09T02:07:18.141Z,65.09
2023-11-09T02:10:07.675Z,64.47
2023-11-09T02:12:54.081Z,63.99
2023-11-09T02:15:41.305Z,64.00
2023-11-09T02:18:27.794Z,64.10
2023-11-09T02:21:16.638Z,63.95
2023-11-09T02:24:13.353Z,63.05
2023-11-09T02:27:00.931Z,62.23
2023-11-09T02:29:47.249Z,62.54
2023-11-09T02:32:34.773Z,61.57
2023-11-09T02:35:21.379Z,61.86
2023-11-09T02:38:10.071Z,61.20
2023-11-09T02:40:57.621Z,61.69
2023-11-09T02:43:44.686Z,61.23
2023-11-09T02:46:31.576Z,61.31
2023-11-09T02:49:18.692Z,60.98
2023-11-09T02:52:07.001Z,60.88
2023-11-09T02:54:53.824Z,60.86
2023-11-09T02:57:39.866Z,60.95
2023-11-09T03:00:28.304Z,60.56
2023-11-09T03:03:17.004Z,60.88
2023-11-09T03:06:03.995Z,61.02
2023-11-09T03:08:51.265Z,61.02
2023-11-09T03:11:37.521Z,60.99
2023-11-09T03:14:23.470Z,60.05
2023-11-09T03:17:12.261Z,60.37
2023-11-09T03:19:59.173Z,60.45
2023-11-09T03:22:49.481Z,60.90
2023-11-09T03:25:35.773Z,60.93
2023-11-09T03:28:22.196Z,60.95
2023-11-09T03:31:08.819Z,60.48
2023-11-09T03:33:55.908Z,60.62
2023-11-09T03:36:42.530Z,60.72
2023-11-09T03:39:28.728Z,60.65
2023-11-09T03:42:17.226Z,60.05
2023-11-09T03:45:04.618Z,60.37
2023-11-09T03:47:52.016Z,60.32
2023-11-09T03:50:38.603Z,60.55
2023-11-09T03:53:24.586Z,60.71
2023-11-09T03:56:11.365Z,60.60
2023-11-09T03:58:57.264Z,60.90
2023-11-09T04:01:43.883Z,61.04
2023-11-09T04:04:30.456Z,61.54
2023-11-09T04:07:16.850Z,61.28
2023-11-09T04:10:03.259Z,61.65
2023-11-09T04:12:49.625Z,61.50
2023-11-09T04:15:37.190Z,61.49
2023-11-09T04:18:25.741Z,61.73
2023-11-09T04:21:12.048Z,61.68
2023-11-09T04:23:58.222Z,61.75
2023-11-09T04:26:45.822Z,61.44
2023-11-09T04:29:32.358Z,61.53
2023-11-09T04:32:20.970Z,61.72
2023-11-09T04:35:08.631Z,61.76
2023-11-09T04:37:57.431Z,61.81
2023-11-09T04:41:17.062Z,61.20
2023-11-09T04:44:04.292Z,61.92
2023-11-09T04:46:54.674Z,62.24
2023-11-09T04:49:47.379Z,62.14
2023-11-09T04:52:35.671Z,62.83
2023-11-09T04:55:33.119Z,62.71
2023-11-09T04:58:39.097Z,63.07
2023-11-09T05:01:44.210Z,63.01
2023-11-09T05:04:49.850Z,62.73
2023-11-09T05:07:36.757Z,62.86
2023-11-09T05:10:23.539Z,63.00
2023-11-09T05:13:10.135Z,63.46
2023-11-09T05:15:56.603Z,63.30
2023-11-09T05:18:44.869Z,63.57
2023-11-09T05:21:31.659Z,63.34
2023-11-09T05:24:18.368Z,63.61
2023-11-09T05:27:08.950Z,63.73
2023-11-09T05:29:54.911Z,63.57
2023-11-09T05:32:41.632Z,63.78
2023-11-09T05:35:28.336Z,63.43
2023-11-09T05:38:14.845Z,63.38
2023-11-09T05:41:01.285Z,63.61
2023-11-09T05:43:47.980Z,63.51
2023-11-09T05:46:35.232Z,63.30
2023-11-09T05:49:22.374Z,63.28
2023-11-09T05:52:10.706Z,63.61
2023-11-09T05:54:57.256Z,63.39
2023-11-09T05:57:43.040Z,63.48
2023-11-09T06:00:29.961Z,63.52
2023-11-09T06:03:15.865Z,63.40
2023-11-09T06:06:03.408Z,63.24
2023-11-09T06:08:50.328Z,63.54
2023-11-09T06:11:37.167Z,63.42
2023-11-09T06:14:23.160Z,62.94
2023-11-09T06:17:12.466Z,62.81
2023-11-09T06:20:00.747Z,62.67
2023-11-09T06:22:48.139Z,62.74
2023-11-09T06:25:34.934Z,62.82
2023-11-09T06:28:23.944Z,62.88
2023-11-09T06:31:10.964Z,62.75
2023-11-09T06:33:57.120Z,62.83
2023-11-09T06:36:46.894Z,62.84
2023-11-09T06:39:34.078Z,63.00
2023-11-09T06:42:20.174Z,62.79
2023-11-09T06:45:07.873Z,62.70
2023-11-09T06:47:54.246Z,62.87
2023-11-09T06:50:41.039Z,63.13
2023-11-09T06:53:27.191Z,62.70
2023-11-09T06:56:14.935Z,62.70
2023-11-09T06:59:01.997Z,62.67
2023-11-09T07:01:48.642Z,62.87
2023-11-09T07:04:35.124Z,62.68
2023-11-09T07:07:21.990Z,62.43
2023-11-09T07:10:09.794Z,62.52
2023-11-09T07:12:58.708Z,62.67
2023-11-09T07:15:45.619Z,62.26
2023-11-09T07:18:32.149Z,62.33
2023-11-09T07:21:21.484Z,61.78
2023-11-09T07:24:09.867Z,61.90
2023-11-09T07:26:56.484Z,61.73
2023-11-09T07:29:45.992Z,61.28
2023-11-09T07:32:36.320Z,61.57
2023-11-09T07:35:23.009Z,61.32
2023-11-09T07:38:09.502Z,61.16
2023-11-09T07:40:56.314Z,60.84
2023-11-09T07:43:42.221Z,60.84
2023-11-09T07:46:28.980Z,60.78
2023-11-09T07:49:16.207Z,60.57
2023-11-09T07:52:05.323Z,60.65
2023-11-09T07:54:51.498Z,60.41
2023-11-09T07:57:38.474Z,60.40
2023-11-09T08:00:24.693Z,60.16
2023-11-09T08:03:20.857Z,59.69
2023-11-09T08:06:08.838Z,59.96
2023-11-09T08:08:55.376Z,60.24
2023-11-09T08:11:43.361Z,60.21
2023-11-09T08:14:29.796Z,60.17
2023-11-09T08:17:25.338Z,60.19
2023-11-09T08:20:16.642Z,59.83
2023-11-09T08:23:03.589Z,59.06
2023-11-09T08:25:49.821Z,58.94
2023-11-09T08:28:35.840Z,59.08
2023-11-09T08:31:25.415Z,58.85
2023-11-09T08:34:13.445Z,58.03
2023-11-09T08:37:01.568Z,57.91
2023-11-09T08:39:49.725Z,57.84
2023-11-09T08:42:36.333Z,58.02
2023-11-09T08:45:24.312Z,58.22
2023-11-09T08:48:11.718Z,57.68
2023-11-09T08:51:01.701Z,57.54
2023-11-09T08:53:51.116Z,57.74
2023-11-09T08:56:40.401Z,57.50
2023-11-09T08:59:26.672Z,57.64
2023-11-09T09:02:12.565Z,57.36
2023-11-09T09:05:03.115Z,57.41
2023-11-09T09:07:53.184Z,57.55
2023-11-09T09:10:44.077Z,57.53
2023-11-09T09:13:31.776Z,57.77
2023-11-09T09:16:18.608Z,57.82
2023-11-09T09:19:09.837Z,57.47
2023-11-09T09:21:56.992Z,57.20
2023-11-09T09:24:43.007Z,56.90
2023-11-09T09:27:30.577Z,56.61
2023-11-09T09:30:19.780Z,56.61
2023-11-09T09:33:09.308Z,56.11
2023-11-09T09:35:55.240Z,56.07
2023-11-09T09:38:41.667Z,55.68
2023-11-09T09:41:33.139Z,55.24
2023-11-09T09:44:20.424Z,54.43
2023-11-09T09:47:09.217Z,54.12
2023-11-09T09:49:56.908Z,53.97
2023-11-09T09:52:48.037Z,53.92
2023-11-09T09:55:35.036Z,54.22
2023-11-09T09:58:21.697Z,53.92
2023-11-09T10:01:09.230Z,54.29
2023-11-09T10:03:56.307Z,53.68
2023-11-09T10:06:43.565Z,53.81
2023-11-09T10:09:29.686Z,54.10
2023-11-09T10:12:16.977Z,54.16
2023-11-09T10:15:05.594Z,54.44
2023-11-09T10:17:56.176Z,54.90
2023-11-09T10:20:57.672Z,53.94
2023-11-09T10:23:54.603Z,53.55
2023-11-09T10:26:46.949Z,53.59
2023-11-09T10:29:34.017Z,53.86
2023-11-09T10:32:20.723Z,53.75
2023-11-09T10:35:12.176Z,53.82
2023-11-09T10:38:00.228Z,52.55
2023-11-09T10:41:14.214Z,52.70
2023-11-09T10:44:03.110Z,53.59
2023-11-09T10:46:57.269Z,53.33
2023-11-09T10:49:56.997Z,53.10
2023-11-09T10:52:44.746Z,53.00
2023-11-09T10:55:34.989Z,53.55
2023-11-09T10:58:23.590Z,53.75
2023-11-09T11:01:12.310Z,53.88
2023-11-09T11:04:00.831Z,53.20
2023-11-09T11:06:52.837Z,53.60
2023-11-09T11:09:40.022Z,53.10
2023-11-09T11:12:26.296Z,53.68
2023-11-09T11:15:15.876Z,53.73
2023-11-09T11:18:28.219Z,53.57
2023-11-09T11:21:43.399Z,53.53
2023-11-09T11:24:44.067Z,53.46
2023-11-09T11:27:39.185Z,53.28
2023-11-09T11:30:30.423Z,53.72
2023-11-09T11:33:18.437Z,54.17
2023-11-09T11:36:09.267Z,53.82
2023-11-09T11:39:31.425Z,53.68
2023-11-09T11:42:20.439Z,53.72
2023-11-09T11:45:08.935Z,53.37
2023-11-09T11:48:01.092Z,53.98
2023-11-09T11:50:49.737Z,53.50
2023-11-09T11:53:37.212Z,53.26
2023-11-09T11:56:32.252Z,53.30
2023-11-09T11:59:24.122Z,53.42
2023-11-09T12:02:11.829Z,52.77
2023-11-09T12:04:59.839Z,53.49
2023-11-09T12:07:47.382Z,53.79
2023-11-09T12:10:40.663Z,53.62
2023-11-09T12:13:35.644Z,53.96
2023-11-09T12:16:25.949Z,53.64
2023-11-09T12:19:13.699Z,53.80
2023-11-09T12:22:02.592Z,54.15
2023-11-09T12:24:57.824Z,54.08
2023-11-09T12:27:47.480Z,54.51
2023-11-09T12:30:33.771Z,54.58
2023-11-09T12:33:20.445Z,54.99
2023-11-09T12:36:08.404Z,55.04
2023-11-09T12:38:55.560Z,55.24
2023-11-09T12:41:41.686Z,55.83
2023-11-09T12:44:36.447Z,56.67
2023-11-09T12:47:23.483Z,57.23
2023-11-09T12:50:18.346Z,57.82
2023-11-09T12:53:06.761Z,58.36
2023-11-09T12:55:53.273Z,58.30
2023-11-09T12:58:42.273Z,58.60
2023-11-09T13:01:31.174Z,58.82
2023-11-09T13:04:30.204Z,58.76
2023-11-09T13:07:17.412Z,58.94
2023-11-09T13:10:20.433Z,58.71
2023-11-09T13:13:22.199Z,59.29
2023-11-09T13:16:16.016Z,59.02
2023-11-09T13:19:15.315Z,59.19
2023-11-09T13:22:06.929Z,58.88
2023-11-09T13:24:55.331Z,59.21
2023-11-09T13:27:41.935Z,59.18
2023-11-09T13:30:29.644Z,59.22
2023-11-09T13:33:38.189Z,59.03
2023-11-09T13:36:45.575Z,59.34
2023-11-09T13:39:52.332Z,59.41
2023-11-09T13:42:39.245Z,59.40
2023-11-09T13:45:35.355Z,59.38
2023-11-09T13:49:32.519Z,59.43
2023-11-09T13:52:40.039Z,59.46
2023-11-09T13:55:45.905Z,59.23
2023-11-09T13:58:32.075Z,59.32
2023-11-09T14:01:29.527Z,59.71
2023-11-09T14:04:21.905Z,59.54
2023-11-09T14:07:10.691Z,59.67
2023-11-09T14:09:56.707Z,60.00
2023-11-09T14:12:44.454Z,59.96
2023-11-09T14:15:33.100Z,60.23
2023-11-09T14:18:29.315Z,60.13
2023-11-09T14:21:19.350Z,60.14
2023-11-09T14:24:06.110Z,60.67
2023-11-09T14:26:53.037Z,60.64
2023-11-09T14:29:39.157Z,60.89
2023-11-09T14:32:27.751Z,61.19
2023-11-09T14:35:17.655Z,61.24
2023-11-09T14:38:06.504Z,61.14
2023-11-09T14:40:55.473Z,61.52
2023-11-09T14:43:42.091Z,61.70
2023-11-09T14:46:28.211Z,62.24
2023-11-09T14:49:16.371Z,62.54
2023-11-09T14:52:21.845Z,62.71
2023-11-09T14:55:14.832Z,62.96
2023-11-09T14:58:15.613Z,63.20
2023-11-09T15:01:04.476Z,63.42
2023-11-09T15:03:53.850Z,64.33
2023-11-09T15:06:40.378Z,64.78
2023-11-09T15:09:33.186Z,64.96
2023-11-09T15:12:19.956Z,65.30
2023-11-09T15:15:09.467Z,65.38
2023-11-09T15:18:00.223Z,65.35
2023-11-09T15:20:46.942Z,66.47
2023-11-09T15:23:34.347Z,66.49
2023-11-09T15:26:22.228Z,66.24
2023-11-09T15:29:10.195Z,66.37
2023-11-09T15:31:56.612Z,66.85
2023-11-09T15:34:44.649Z,67.05
2023-11-09T15:37:31.647Z,67.08
2023-11-09T15:41:08.315Z,67.14
2023-11-09T15:43:25.444Z,67.25
2023-11-09T15:46:13.362Z,67.45
2023-11-09T15:49:01.084Z,67.23
2023-11-09T15:51:47.640Z,67.33
2023-11-09T15:54:38.104Z,67.26
2023-11-09T15:57:24.329Z,67.40
2023-11-09T16:00:14.267Z,67.39
2023-11-09T16:03:01.466Z,67.29
2023-11-09T16:05:49.983Z,67.27
2023-11-09T16:08:36.481Z,67.22
2023-11-09T16:11:23.762Z,67.49
2023-11-09T16:14:09.668Z,67.53
2023-11-09T16:16:56.479Z,67.62
2023-11-09T16:19:42.747Z,67.71
2023-11-09T16:22:29.948Z,67.63
2023-11-09T16:25:23.764Z,67.69
2023-11-09T16:28:11.037Z,67.48
2023-11-09T16:31:07.018Z,67.64
2023-11-09T16:33:55.695Z,67.66
2023-11-09T16:36:42.501Z,67.73
2023-11-09T16:39:29.286Z,67.43
2023-11-09T16:42:19.358Z,67.53
2023-11-09T16:45:09.125Z,67.50
2023-11-09T16:47:55.764Z,67.63
2023-11-09T16:50:43.158Z,67.69
2023-11-09T16:53:29.434Z,67.64
2023-11-09T16:56:16.094Z,67.74
2023-11-09T16:59:02.029Z,67.79
2023-11-09T17:01:48.840Z,67.86
2023-11-09T17:04:35.190Z,67.81
2023-11-09T17:07:42.894Z,67.85
2023-11-09T17:10:29.962Z,67.85
2023-11-09T17:13:16.386Z,67.97
2023-11-09T17:16:06.080Z,67.94
2023-11-09T17:18:55.225Z,68.08
2023-11-09T17:21:41.161Z,68.17
2023-11-09T17:24:28.149Z,68.00
2023-11-09T17:27:14.785Z,68.28
2023-11-09T17:30:09.857Z,68.57
2023-11-09T17:32:56.177Z,68.65
2023-11-09T17:35:44.069Z,69.04
2023-11-09T17:38:31.879Z,69.06
2023-11-09T17:41:19.060Z,69.47
2023-11-09T17:44:10.881Z,69.98
2023-11-09T17:46:58.824Z,69.90
2023-11-09T17:49:45.664Z,70.22
2023-11-09T17:52:32.991Z,70.23
2023-11-09T17:55:22.822Z,70.31
2023-11-09T17:58:11.164Z,70.45
2023-11-09T18:01:00.116Z,70.63
2023-11-09T18:03:46.400Z,70.92
2023-11-09T18:06:33.804Z,70.97
2023-11-09T18:09:21.379Z,70.98
2023-11-09T18:12:18.736Z,70.92
2023-11-09T18:15:06.475Z,71.07
2023-11-09T18:17:53.344Z,71.11
2023-11-09T18:20:39.681Z,71.01
2023-11-09T18:23:25.855Z,71.05
2023-11-09T18:26:13.504Z,71.29
2023-11-09T18:28:59.656Z,71.15
2023-11-09T18:31:46.904Z,71.38
2023-11-09T18:34:49.661Z,71.24
2023-11-09T18:37:37.534Z,71.38
2023-11-09T18:40:25.124Z,71.38
2023-11-09T18:43:12.142Z,71.54
2023-11-09T18:46:00.334Z,71.29
2023-11-09T18:48:48.986Z,71.11
2023-11-09T18:51:35.834Z,71.49
2023-11-09T18:54:22.322Z,71.75
2023-11-09T18:57:10.678Z,71.84
2023-11-09T18:59:57.957Z,71.97
2023-11-09T19:05:34.064Z,72.11
2023-11-09T19:08:21.782Z,72.77
2023-11-09T19:11:11.647Z,72.92
2023-11-09T19:13:58.633Z,73.21
2023-11-09T19:16:45.498Z,73.46
2023-11-09T19:19:31.704Z,73.91
2023-11-09T19:25:12.982Z,73.90
2023-11-09T19:28:00.087Z,74.08
2023-11-09T19:30:47.039Z,73.72
2023-11-09T19:33:38.015Z,74.01
2023-11-09T19:36:26.562Z,73.91
2023-11-09T19:39:13.142Z,73.69
2023-11-09T19:41:59.376Z,73.33
2023-11-09T19:44:46.426Z,73.11
2023-11-09T19:47:33.491Z,72.94
2023-11-09T19:50:24.113Z,72.54
2023-11-09T19:53:10.528Z,72.42
2023-11-09T19:55:57.169Z,72.15
2023-11-09T19:59:33.477Z,71.97
2023-11-09T20:02:21.560Z,71.54
2023-11-09T20:05:09.078Z,71.64
2023-11-09T20:07:55.590Z,71.66
2023-11-09T20:10:41.553Z,71.50
2023-11-09T20:13:28.085Z,71.53
2023-11-09T20:16:14.494Z,71.23
2023-11-09T20:19:01.198Z,71.21
2023-11-09T20:21:47.651Z,71.55
2023-11-09T20:24:35.594Z,71.84
2023-11-09T20:27:23.192Z,71.74
2023-11-09T20:30:14.432Z,71.82
2023-11-09T20:33:03.147Z,72.03
2023-11-09T20:35:49.955Z,72.17
2023-11-09T20:38:37.894Z,72.36
2023-11-09T20:41:25.115Z,72.42
2023-11-09T20:44:11.116Z,72.58
2023-11-09T20:46:57.599Z,72.70
2023-11-09T20:49:45.598Z,72.71
2023-11-09T20:52:33.976Z,72.85
2023-11-09T20:55:23.580Z,72.84
2023-11-09T20:58:11.834Z,72.46
2023-11-09T21:00:59.303Z,72.45
2023-11-09T21:03:46.328Z,72.58
2023-11-09T21:06:34.013Z,72.75
2023-11-09T21:09:25.827Z,72.85
2023-11-09T21:12:18.237Z,72.49
2023-11-09T21:15:09.582Z,72.72
2023-11-09T21:17:57.763Z,72.52
2023-11-09T21:20:44.894Z,72.50
2023-11-09T21:23:34.750Z,72.53
2023-11-09T21:26:21.396Z,72.41
2023-11-09T21:29:09.568Z,72.67
2023-11-09T21:31:56.669Z,72.77
2023-11-09T21:34:42.956Z,72.79
2023-11-09T21:37:31.154Z,72.76
2023-11-09T21:40:19.720Z,73.03
2023-11-09T21:43:06.124Z,72.86
2023-11-09T21:45:52.489Z,72.77
2023-11-09T21:48:40.345Z,72.84
2023-11-09T21:51:27.475Z,72.92
2023-11-09T21:54:13.769Z,73.08
2023-11-09T21:57:02.260Z,73.12
2023-11-09T21:59:50.088Z,73.35
2023-11-09T22:02:55.631Z,73.28
2023-11-09T22:05:42.384Z,73.11
2023-11-09T22:08:30.742Z,73.09
2023-11-09T22:11:18.101Z,73.25
2023-11-09T22:14:05.668Z,73.19
2023-11-09T22:16:52.099Z,73.28
2023-11-09T22:19:39.579Z,73.15
2023-11-09T22:22:26.122Z,73.10
2023-11-09T22:25:12.365Z,73.17
2023-11-09T22:28:01.899Z,73.10
2023-11-09T22:30:47.907Z,72.98
2023-11-09T22:33:34.669Z,73.21
2023-11-09T22:36:20.928Z,73.26
2023-11-09T22:39:08.913Z,73.51
2023-11-09T22:41:55.823Z,73.51
2023-11-09T22:44:42.375Z,73.71
2023-11-09T22:47:28.275Z,73.62
2023-11-09T22:50:14.730Z,73.56
2023-11-09T22:53:01.247Z,73.55
2023-11-09T22:55:48.441Z,73.69
2023-11-09T22:58:34.702Z,73.75
2023-11-09T23:01:26.693Z,73.77
2023-11-09T23:04:13.245Z,73.94
2023-11-09T23:07:03.087Z,73.98
2023-11-09T23:09:49.041Z,74.00
2023-11-09T23:12:36.332Z,73.97
2023-11-09T23:26:50.253Z,72.18
2023-11-09T23:29:37.962Z,71.87
2023-11-09T23:32:25.497Z,71.93
2023-11-09T23:35:12.158Z,72.35
2023-11-09T23:37:58.195Z,72.08
2023-11-09T23:40:45.413Z,72.09
2023-11-09T23:43:31.247Z,71.68
2023-11-09T23:46:18.553Z,71.72
2023-11-09T23:49:05.859Z,71.49
2023-11-09T23:51:53.061Z,71.23
2023-11-09T23:54:41.080Z,71.33
2023-11-09T23:57:28.336Z,70.92
